Time;durP1;ratioP1;P1;durP2;ratioP2;P2;SDS_P1;SDS_P2;PMS_P1;PMS_P2;Temp;Humidity;BMP_temperature;BMP_pressure;BME280_temperature;BME280_humidity;BME280_pressure;Samples;Min_cycle;Max_cycle;Signal;HPM_P1;HPM_P2
2023/07/12 00:00:23;;;;;;;6.23;5.63;;;21.40;99.90;;;;;;5040038;28;20465;-71
2023/07/12 00:02:50;;;;;;;7.60;6.13;;;21.40;99.90;;;;;;5031759;28;20508;-70
2023/07/12 00:05:18;;;;;;;11.13;6.50;;;21.40;99.90;;;;;;5031362;28;21023;-70
2023/07/12 00:07:46;;;;;;;10.60;6.50;;;21.40;99.90;;;;;;5040852;28;20517;-70
2023/07/12 00:10:17;;;;;;;7.33;6.40;;;21.40;99.90;;;;;;5039937;28;20470;-70
2023/07/12 00:12:44;;;;;;;8.10;7.03;;;21.30;99.90;;;;;;5032090;28;20446;-70
2023/07/12 00:15:14;;;;;;;9.83;7.00;;;21.30;99.90;;;;;;5045919;28;20500;-71
2023/07/12 00:17:41;;;;;;;8.10;7.30;;;21.30;99.90;;;;;;5045677;28;20445;-70
2023/07/12 00:20:27;;;;;;;10.30;7.93;;;21.30;99.90;;;;;;5049658;28;20464;-70
2023/07/12 00:22:54;;;;;;;13.67;8.33;;;21.30;99.90;;;;;;5040696;28;20488;-70
2023/07/12 00:25:25;;;;;;;14.97;7.80;;;21.30;99.90;;;;;;5032733;28;20469;-70
2023/07/12 00:27:52;;;;;;;9.90;7.37;;;21.30;99.90;;;;;;5051088;28;20472;-71
2023/07/12 00:30:21;;;;;;;13.17;8.47;;;21.30;99.90;;;;;;5036486;28;20468;-71
2023/07/12 00:32:49;;;;;;;11.63;7.80;;;21.30;99.90;;;;;;5030479;28;20449;-71
2023/07/12 00:35:18;;;;;;;12.43;8.40;;;21.40;99.90;;;;;;5036844;28;20506;-70
2023/07/12 00:37:45;;;;;;;10.13;7.90;;;21.40;99.90;;;;;;5051542;28;20514;-70
2023/07/12 00:40:47;;;;;;;12.53;8.93;;;21.40;99.90;;;;;;5049535;28;20452;-70
2023/07/12 00:43:22;;;;;;;11.70;8.00;;;21.50;99.90;;;;;;5040457;28;20456;-69
2023/07/12 00:45:51;;;;;;;12.10;8.13;;;21.50;99.90;;;;;;5040373;28;20515;-70
2023/07/12 00:48:19;;;;;;;8.77;7.70;;;21.50;99.90;;;;;;5043455;28;20523;-71
2023/07/12 00:50:47;;;;;;;11.90;8.27;;;21.40;99.90;;;;;;5047360;28;20874;-71
2023/07/12 00:53:15;;;;;;;11.67;8.83;;;21.40;99.90;;;;;;5028713;28;20523;-70
2023/07/12 00:56:02;;;;;;;9.03;7.60;;;21.40;99.90;;;;;;5030881;28;20500;-71
2023/07/12 00:58:35;;;;;;;15.27;9.00;;;21.40;99.90;;;;;;5027150;28;20495;-71
2023/07/12 01:01:04;;;;;;;13.50;9.13;;;21.30;99.90;;;;;;5039573;28;20541;-70
2023/07/12 01:03:34;;;;;;;12.23;8.40;;;21.20;99.90;;;;;;5038180;28;20453;-71
2023/07/12 01:06:01;;;;;;;10.13;8.70;;;21.20;99.90;;;;;;5027457;28;21018;-70
2023/07/12 01:08:29;;;;;;;10.23;7.63;;;21.20;99.90;;;;;;5038942;28;20954;-71
2023/07/12 01:10:57;;;;;;;11.53;8.20;;;21.20;99.90;;;;;;5045707;28;20452;-71
2023/07/12 01:13:24;;;;;;;9.63;8.07;;;21.20;99.90;;;;;;5029375;28;20441;-70
2023/07/12 01:15:53;;;;;;;12.57;8.37;;;21.20;99.90;;;;;;5048997;28;21080;-70
2023/07/12 01:18:20;;;;;;;13.30;7.90;;;21.10;99.90;;;;;;5036742;28;20453;-70
2023/07/12 01:20:48;;;;;;;13.17;8.33;;;21.10;99.90;;;;;;5031046;28;20457;-70
2023/07/12 01:23:16;;;;;;;14.07;8.47;;;21.10;99.90;;;;;;5043782;28;20463;-70
2023/07/12 01:25:45;;;;;;;9.77;8.00;;;21.00;99.90;;;;;;5040236;28;20464;-70
2023/07/12 01:28:12;;;;;;;11.00;7.60;;;21.00;99.90;;;;;;5038230;28;20449;-70
2023/07/12 01:30:40;;;;;;;9.20;6.93;;;21.10;99.90;;;;;;5031231;28;20519;-70
2023/07/12 01:33:07;;;;;;;12.60;7.70;;;21.00;99.90;;;;;;5034948;28;20458;-70
2023/07/12 01:35:33;;;;;;;8.27;6.10;;;21.00;99.90;;;;;;5040193;28;20485;-70
2023/07/12 01:38:00;;;;;;;8.77;6.30;;;21.00;99.90;;;;;;5046762;28;20492;-71
2023/07/12 01:40:28;;;;;;;8.33;6.97;;;21.00;99.90;;;;;;5046142;28;20453;-70
2023/07/12 01:42:55;;;;;;;12.20;6.83;;;21.00;99.90;;;;;;5033464;28;20507;-70
2023/07/12 01:45:22;;;;;;;15.50;7.00;;;21.10;99.90;;;;;;5030553;28;21051;-71
2023/07/12 01:47:48;;;;;;;8.07;6.30;;;21.10;99.90;;;;;;5034712;28;20530;-70
2023/07/12 01:50:15;;;;;;;11.10;7.17;;;21.10;99.90;;;;;;5039538;28;20452;-70
2023/07/12 01:52:41;;;;;;;8.43;6.27;;;21.10;99.90;;;;;;5054749;28;20456;-70
2023/07/12 01:55:09;;;;;;;9.33;6.67;;;21.10;99.90;;;;;;5045175;28;20542;-70
2023/07/12 01:57:37;;;;;;;6.10;5.50;;;21.10;99.90;;;;;;5040099;28;20452;-70
2023/07/12 02:00:05;;;;;;;9.10;6.17;;;21.00;99.90;;;;;;5046417;28;20506;-70
2023/07/12 02:02:31;;;;;;;9.60;6.80;;;21.00;99.90;;;;;;5045113;28;20448;-70
2023/07/12 02:04:58;;;;;;;8.00;6.83;;;21.00;99.90;;;;;;5046475;28;20988;-70
2023/07/12 02:07:25;;;;;;;8.53;6.30;;;20.90;99.90;;;;;;5046843;28;20448;-70
2023/07/12 02:10:11;;;;;;;10.73;7.27;;;20.90;99.90;;;;;;5050103;28;21043;-70
2023/07/12 02:12:40;;;;;;;12.20;7.33;;;20.80;99.90;;;;;;5039033;28;20449;-70
2023/07/12 02:15:07;;;;;;;12.87;7.53;;;20.80;99.90;;;;;;5041882;28;20457;-70
2023/07/12 02:17:34;;;;;;;10.50;6.93;;;20.80;99.90;;;;;;5034418;28;20461;-70
2023/07/12 02:20:01;;;;;;;17.60;8.30;;;20.80;99.90;;;;;;5045525;28;20448;-70
2023/07/12 02:22:30;;;;;;;14.20;7.83;;;20.80;99.90;;;;;;5042627;28;20544;-70
2023/07/12 02:24:57;;;;;;;11.87;7.27;;;20.80;99.90;;;;;;5047124;28;20522;-70
2023/07/12 02:27:23;;;;;;;10.20;7.60;;;20.80;99.90;;;;;;5036628;28;20476;-70
2023/07/12 02:29:51;;;;;;;11.53;7.03;;;20.80;99.90;;;;;;5039239;28;20477;-70
2023/07/12 02:32:18;;;;;;;11.53;7.10;;;20.80;99.90;;;;;;5046924;28;21003;-71
2023/07/12 02:34:44;;;;;;;11.33;7.23;;;20.80;99.90;;;;;;5042419;28;20531;-70
2023/07/12 02:37:11;;;;;;;13.60;8.37;;;20.80;99.90;;;;;;5045139;28;20610;-70
2023/07/12 02:39:38;;;;;;;12.83;8.13;;;20.70;99.90;;;;;;5045003;28;20452;-70
2023/07/12 02:42:05;;;;;;;11.30;8.30;;;20.70;99.90;;;;;;5033272;28;20449;-70
2023/07/12 02:44:31;;;;;;;13.07;8.70;;;20.70;99.90;;;;;;5033749;28;20480;-70
2023/07/12 02:46:59;;;;;;;12.63;7.80;;;20.70;99.90;;;;;;5033315;28;20503;-70
2023/07/12 02:49:26;;;;;;;12.50;8.70;;;20.70;99.90;;;;;;5033774;28;20453;-70
2023/07/12 02:51:53;;;;;;;12.20;8.47;;;20.80;99.90;;;;;;5033864;28;20546;-70
2023/07/12 02:54:19;;;;;;;10.40;8.80;;;20.80;99.90;;;;;;5033502;28;20531;-70
2023/07/12 02:56:46;;;;;;;9.90;7.60;;;20.80;99.90;;;;;;5033913;28;20485;-71
2023/07/12 02:59:13;;;;;;;15.07;8.20;;;20.80;99.90;;;;;;5032566;28;20869;-71
2023/07/12 03:01:40;;;;;;;10.17;8.13;;;20.80;99.90;;;;;;5033756;28;20664;-70
2023/07/12 03:04:08;;;;;;;12.93;7.83;;;20.90;99.90;;;;;;5033553;28;20477;-71
2023/07/12 03:06:35;;;;;;;17.83;8.23;;;20.90;99.90;;;;;;5033663;28;20445;-70
2023/07/12 03:09:04;;;;;;;9.50;8.13;;;21.00;99.90;;;;;;5033370;28;20478;-70
2023/07/12 03:11:31;;;;;;;13.43;8.50;;;21.00;99.90;;;;;;5032411;28;21192;-71
2023/07/12 03:13:57;;;;;;;17.10;7.47;;;21.00;99.90;;;;;;5032920;28;20473;-71
2023/07/12 03:16:24;;;;;;;10.40;7.73;;;21.10;99.90;;;;;;5033448;28;20489;-70
2023/07/12 03:18:52;;;;;;;11.90;8.03;;;21.10;99.90;;;;;;5032932;28;20519;-70
2023/07/12 03:21:20;;;;;;;15.00;7.93;;;21.10;99.90;;;;;;5033158;28;20460;-70
2023/07/12 03:23:48;;;;;;;13.23;8.20;;;21.20;99.90;;;;;;5032244;28;21264;-71
2023/07/12 03:26:15;;;;;;;12.43;8.47;;;21.20;99.90;;;;;;5032657;28;20938;-71
2023/07/12 03:28:42;;;;;;;18.43;8.70;;;21.10;99.90;;;;;;5031915;28;20458;-71
2023/07/12 03:31:11;;;;;;;13.73;8.40;;;21.20;99.90;;;;;;5034617;28;20791;-70
2023/07/12 03:33:39;;;;;;;14.00;7.60;;;21.20;99.90;;;;;;5032620;28;20454;-71
2023/07/12 03:36:06;;;;;;;10.17;7.70;;;21.20;99.90;;;;;;5032611;28;20485;-70
2023/07/12 03:38:34;;;;;;;15.07;7.80;;;21.10;99.90;;;;;;5032613;28;20453;-70
2023/07/12 03:41:03;;;;;;;11.30;8.30;;;21.10;99.90;;;;;;5032407;28;20511;-71
2023/07/12 03:43:30;;;;;;;11.83;8.80;;;21.10;99.90;;;;;;5031933;28;20680;-70
2023/07/12 03:45:57;;;;;;;27.83;8.77;;;21.00;99.90;;;;;;5032415;28;21136;-70
2023/07/12 03:48:24;;;;;;;11.90;8.67;;;21.00;99.90;;;;;;5032085;28;20808;-71
2023/07/12 03:50:52;;;;;;;12.47;9.07;;;21.00;99.90;;;;;;5032252;28;20880;-70
2023/07/12 03:53:19;;;;;;;14.93;9.50;;;20.90;99.90;;;;;;5033053;28;20456;-70
2023/07/12 03:55:48;;;;;;;14.70;8.93;;;20.90;99.90;;;;;;5032798;28;20473;-70
2023/07/12 03:58:17;;;;;;;13.00;9.50;;;20.80;99.90;;;;;;5027548;28;20941;-70
2023/07/12 04:00:45;;;;;;;14.30;9.67;;;20.80;99.90;;;;;;5032469;28;20457;-70
2023/07/12 04:03:12;;;;;;;17.83;9.80;;;20.80;99.90;;;;;;5032376;28;20457;-70
2023/07/12 04:05:39;;;;;;;17.40;9.67;;;20.80;99.90;;;;;;5032253;28;20477;-70
2023/07/12 04:08:07;;;;;;;14.93;9.50;;;20.80;99.90;;;;;;5032121;28;21012;-71
2023/07/12 04:10:34;;;;;;;18.60;9.23;;;20.80;99.90;;;;;;5031396;28;20441;-71
2023/07/12 04:13:03;;;;;;;16.30;9.30;;;20.80;99.90;;;;;;5031985;28;20453;-70
2023/07/12 04:15:30;;;;;;;15.60;8.93;;;20.80;99.90;;;;;;5026216;28;20973;-73
2023/07/12 04:17:56;;;;;;;18.53;9.20;;;20.80;99.90;;;;;;5031023;28;20494;-73
2023/07/12 04:20:23;;;;;;;14.83;8.70;;;20.80;99.90;;;;;;5031957;28;20445;-73
2023/07/12 04:22:51;;;;;;;15.30;8.57;;;20.90;99.90;;;;;;5031699;28;20861;-73
2023/07/12 04:25:19;;;;;;;16.20;9.30;;;20.90;99.90;;;;;;5031813;28;20477;-73
2023/07/12 04:27:45;;;;;;;12.43;8.83;;;21.00;99.90;;;;;;5031837;28;20493;-72
2023/07/12 04:30:15;;;;;;;13.00;8.70;;;21.10;99.90;;;;;;5031381;28;20465;-73
2023/07/12 04:32:42;;;;;;;14.53;8.50;;;21.10;99.90;;;;;;5034542;28;20457;-73
2023/07/12 04:35:10;;;;;;;16.27;9.53;;;21.30;99.90;;;;;;5031853;28;20469;-74
2023/07/12 04:37:37;;;;;;;15.30;9.40;;;21.30;99.90;;;;;;5031742;28;20497;-74
2023/07/12 04:40:05;;;;;;;20.50;10.67;;;21.40;99.90;;;;;;5031792;28;20453;-74
2023/07/12 04:42:31;;;;;;;23.30;9.50;;;21.40;99.90;;;;;;5031421;28;20486;-74
2023/07/12 04:44:58;;;;;;;15.90;8.30;;;21.40;99.90;;;;;;5031473;28;20538;-74
2023/07/12 04:47:26;;;;;;;11.50;8.57;;;21.50;99.90;;;;;;5030982;28;20500;-74
2023/07/12 04:49:52;;;;;;;17.10;9.50;;;21.60;99.90;;;;;;5031180;28;20449;-74
2023/07/12 04:52:19;;;;;;;15.93;8.47;;;21.70;99.90;;;;;;5031192;28;20453;-75
2023/07/12 04:54:46;;;;;;;15.93;9.50;;;21.70;99.90;;;;;;5031619;28;20481;-74
2023/07/12 04:57:13;;;;;;;18.23;8.80;;;21.70;99.90;;;;;;5030898;28;20521;-73
2023/07/12 04:59:40;;;;;;;16.00;10.43;;;21.60;99.90;;;;;;5030668;28;20457;-73
2023/07/12 05:02:06;;;;;;;12.20;9.50;;;21.60;99.90;;;;;;5030928;28;20453;-73
2023/07/12 05:04:35;;;;;;;17.57;10.40;;;21.50;99.90;;;;;;5029973;28;20476;-70
2023/07/12 05:07:02;;;;;;;12.97;9.60;;;21.50;99.90;;;;;;5030698;28;21015;-70
2023/07/12 05:09:28;;;;;;;14.60;8.50;;;21.50;99.90;;;;;;5030464;28;20469;-70
2023/07/12 05:11:55;;;;;;;12.23;7.93;;;21.40;99.90;;;;;;5030722;28;20449;-71
2023/07/12 05:14:22;;;;;;;14.60;7.27;;;21.40;99.90;;;;;;5030831;28;20473;-70
2023/07/12 05:16:48;;;;;;;12.07;7.40;;;21.50;99.90;;;;;;5031174;28;20493;-70
2023/07/12 05:19:15;;;;;;;10.20;6.90;;;21.50;99.90;;;;;;5031026;28;20445;-71
2023/07/12 05:21:43;;;;;;;7.23;6.53;;;21.50;99.90;;;;;;5030998;28;20445;-70
2023/07/12 05:24:09;;;;;;;4.93;4.30;;;21.50;99.90;;;;;;5030515;28;20473;-71
2023/07/12 05:26:36;;;;;;;6.20;3.53;;;21.30;99.90;;;;;;5031059;28;20453;-70
2023/07/12 05:29:03;;;;;;;3.60;3.30;;;21.10;99.90;;;;;;5029610;28;20881;-70
2023/07/12 05:31:31;;;;;;;7.70;3.63;;;21.00;99.90;;;;;;5034339;28;20449;-71
2023/07/12 05:33:58;;;;;;;6.17;3.80;;;20.80;99.90;;;;;;5030538;28;20568;-70
2023/07/12 05:36:24;;;;;;;4.53;3.70;;;20.60;99.90;;;;;;5030721;28;20499;-70
2023/07/12 05:38:53;;;;;;;4.67;3.90;;;20.50;99.90;;;;;;5029628;28;20465;-70
2023/07/12 05:41:20;;;;;;;5.00;3.70;;;20.50;99.90;;;;;;5028529;28;20537;-70
2023/07/12 05:43:46;;;;;;;8.53;4.50;;;20.70;99.90;;;;;;5028798;28;20445;-70
2023/07/12 05:46:13;;;;;;;7.30;4.63;;;20.80;99.90;;;;;;5028323;28;20453;-70
2023/07/12 05:48:40;;;;;;;6.80;4.10;;;20.90;99.90;;;;;;5028449;28;20453;-70
2023/07/12 05:51:08;;;;;;;6.73;4.47;;;21.00;99.90;;;;;;5029423;28;20518;-70
2023/07/12 05:53:34;;;;;;;4.93;4.43;;;21.10;99.90;;;;;;5030786;28;20445;-70
2023/07/12 05:56:06;;;;;;;5.03;3.30;;;21.20;99.90;;;;;;5030547;28;20937;-70
2023/07/12 05:58:34;;;;;;;5.17;4.27;;;21.30;99.90;;;;;;5030257;28;20493;-71
2023/07/12 06:01:02;;;;;;;5.23;3.63;;;21.40;99.90;;;;;;5030413;28;20949;-70
2023/07/12 06:03:31;;;;;;;7.10;4.20;;;21.60;99.90;;;;;;5030381;28;20817;-70
2023/07/12 06:05:57;;;;;;;4.73;3.50;;;21.90;99.90;;;;;;5030513;28;20954;-70
2023/07/12 06:08:25;;;;;;;5.63;3.40;;;21.90;99.90;;;;;;5030799;28;20472;-70
2023/07/12 06:10:51;;;;;;;4.60;3.33;;;22.00;99.90;;;;;;5030538;28;20450;-70
2023/07/12 06:13:19;;;;;;;5.20;3.30;;;22.00;99.90;;;;;;5030425;28;20955;-70
2023/07/12 06:15:46;;;;;;;7.97;3.13;;;22.00;99.90;;;;;;5029447;28;20478;-70
2023/07/12 06:18:13;;;;;;;3.70;3.20;;;21.90;99.90;;;;;;5029549;28;20485;-70
2023/07/12 06:20:39;;;;;;;4.30;2.97;;;21.90;99.90;;;;;;5030818;28;20450;-69
2023/07/12 06:23:06;;;;;;;4.60;3.03;;;22.00;99.90;;;;;;5030743;28;20457;-69
2023/07/12 06:25:33;;;;;;;4.00;2.93;;;22.10;99.90;;;;;;5030255;28;20531;-70
2023/07/12 06:27:59;;;;;;;6.67;3.40;;;22.20;99.90;;;;;;5030384;28;20449;-70
2023/07/12 06:30:27;;;;;;;2.97;2.73;;;22.30;99.90;;;;;;5030213;28;20515;-70
2023/07/12 06:32:54;;;;;;;3.03;2.73;;;22.50;99.90;;;;;;5035057;28;20937;-70
2023/07/12 06:35:21;;;;;;;6.20;2.43;;;22.60;99.90;;;;;;5034271;28;20473;-70
2023/07/12 06:37:47;;;;;;;5.73;3.03;;;22.80;99.90;;;;;;5033244;28;20492;-70
2023/07/12 06:40:14;;;;;;;3.87;3.07;;;22.80;99.90;;;;;;5033859;28;20511;-70
2023/07/12 06:42:40;;;;;;;4.10;3.03;;;22.80;99.90;;;;;;5033485;28;20448;-70
2023/07/12 06:45:08;;;;;;;8.13;3.00;;;23.00;99.90;;;;;;5033444;28;20485;-70
2023/07/12 06:47:36;;;;;;;8.20;2.30;;;23.10;99.90;;;;;;5033731;28;20449;-71
2023/07/12 06:50:04;;;;;;;3.27;2.37;;;23.20;99.90;;;;;;5033628;28;21000;-71
2023/07/12 06:52:30;;;;;;;2.90;2.70;;;23.50;99.90;;;;;;5033428;28;20462;-71
2023/07/12 06:54:57;;;;;;;5.20;2.97;;;23.70;99.90;;;;;;5033440;28;20477;-71
2023/07/12 06:57:24;;;;;;;4.30;2.83;;;23.90;99.90;;;;;;5033017;28;21035;-71
2023/07/12 06:59:50;;;;;;;2.83;2.23;;;24.10;99.90;;;;;;5033787;28;20453;-71
2023/07/12 07:02:17;;;;;;;5.37;2.00;;;24.20;99.90;;;;;;5033148;28;21004;-71
2023/07/12 07:04:45;;;;;;;4.23;1.80;;;24.30;99.90;;;;;;5033269;28;20989;-71
2023/07/12 07:07:12;;;;;;;3.10;2.10;;;24.50;99.90;;;;;;5033568;28;20515;-71
2023/07/12 07:09:39;;;;;;;2.47;2.27;;;24.70;99.90;;;;;;5033099;28;20446;-71
2023/07/12 07:12:07;;;;;;;2.20;2.00;;;24.80;99.90;;;;;;5033040;28;20552;-71
2023/07/12 07:14:33;;;;;;;3.57;2.20;;;24.80;99.90;;;;;;5033692;28;20465;-71
2023/07/12 07:17:00;;;;;;;5.87;2.20;;;24.70;99.90;;;;;;5033266;28;21071;-71
2023/07/12 07:19:27;;;;;;;2.93;2.20;;;24.70;99.90;;;;;;5025121;28;20450;-71
2023/07/12 07:21:55;;;;;;;2.20;1.87;;;24.80;99.90;;;;;;5033266;28;20507;-70
2023/07/12 07:24:21;;;;;;;2.00;1.80;;;24.60;99.90;;;;;;5032003;28;20477;-71
2023/07/12 07:26:48;;;;;;;4.07;2.10;;;24.40;99.90;;;;;;5033428;28;20461;-71
2023/07/12 07:29:15;;;;;;;1.43;1.33;;;24.30;99.90;;;;;;5032883;28;20464;-71
2023/07/12 07:31:41;;;;;;;2.67;1.47;;;24.30;99.90;;;;;;5037555;28;20445;-71
2023/07/12 07:34:08;;;;;;;1.60;1.50;;;24.30;99.90;;;;;;5033020;28;20527;-71
2023/07/12 07:36:35;;;;;;;2.13;1.40;;;24.40;99.90;;;;;;5032927;28;20449;-71
2023/07/12 07:39:05;;;;;;;1.53;1.40;;;24.30;99.90;;;;;;5032784;28;20501;-70
2023/07/12 07:41:31;;;;;;;2.93;1.40;;;24.10;99.90;;;;;;5032116;28;20454;-71
2023/07/12 07:43:58;;;;;;;4.57;1.80;;;23.90;99.90;;;;;;5032594;28;20473;-70
2023/07/12 07:46:25;;;;;;;2.17;1.43;;;23.80;99.90;;;;;;5032721;28;20445;-70
2023/07/12 07:48:51;;;;;;;2.67;1.60;;;23.80;99.90;;;;;;5032468;28;20437;-71
2023/07/12 07:51:18;;;;;;;2.57;1.90;;;23.90;99.90;;;;;;5032805;28;21292;-71
2023/07/12 07:53:45;;;;;;;1.60;1.50;;;23.80;99.90;;;;;;5033018;28;20457;-71
2023/07/12 07:56:13;;;;;;;2.00;1.50;;;23.80;99.90;;;;;;5032503;28;20446;-71
2023/07/12 07:58:40;;;;;;;2.70;1.80;;;24.30;99.90;;;;;;5032179;28;21062;-71
2023/07/12 08:01:06;;;;;;;1.43;1.33;;;24.60;99.90;;;;;;5032284;28;20458;-71
2023/07/12 08:03:34;;;;;;;2.80;1.70;;;24.50;99.90;;;;;;5032286;28;20926;-70
2023/07/12 08:06:02;;;;;;;1.47;1.37;;;24.50;99.90;;;;;;5032831;28;20461;-70
2023/07/12 08:08:29;;;;;;;1.60;1.50;;;24.70;99.90;;;;;;5031959;28;20491;-71
2023/07/12 08:10:56;;;;;;;1.93;1.73;;;25.00;99.90;;;;;;5031948;28;20464;-71
2023/07/12 08:13:24;;;;;;;2.60;1.73;;;25.30;99.90;;;;;;5031960;28;20449;-71
2023/07/12 08:15:50;;;;;;;1.30;1.03;;;25.70;99.90;;;;;;5031628;28;20473;-71
2023/07/12 08:18:17;;;;;;;2.13;1.60;;;25.70;99.90;;;;;;5031505;28;21362;-71
2023/07/12 08:20:44;;;;;;;1.60;1.40;;;25.50;99.90;;;;;;5032046;28;20457;-70
2023/07/12 08:23:10;;;;;;;1.57;1.47;;;25.40;99.90;;;;;;5031788;28;20512;-70
2023/07/12 08:25:37;;;;;;;5.30;1.30;;;25.00;99.90;;;;;;5031991;28;20464;-70
2023/07/12 08:28:04;;;;;;;2.17;1.43;;;24.90;99.90;;;;;;5031704;28;20507;-70
2023/07/12 08:30:32;;;;;;;1.40;1.30;;;25.10;99.90;;;;;;5031506;28;20458;-70
2023/07/12 08:32:59;;;;;;;3.57;1.57;;;25.30;99.90;;;;;;5036809;28;20503;-70
2023/07/12 08:35:26;;;;;;;1.90;1.60;;;25.60;99.90;;;;;;5031809;28;20477;-71
2023/07/12 08:37:55;;;;;;;2.30;1.63;;;26.00;99.90;;;;;;5031104;28;20493;-71
2023/07/12 08:40:21;;;;;;;1.63;1.53;;;26.40;99.90;;;;;;5031672;28;20453;-71
2023/07/12 08:42:48;;;;;;;1.87;1.67;;;27.00;99.90;;;;;;5031216;28;20457;-71
2023/07/12 08:45:22;;;;;;;1.50;1.40;;;27.30;99.90;;;;;;5032026;28;20892;-71
2023/07/12 08:47:51;;;;;;;4.37;1.23;;;27.30;99.90;;;;;;5031876;28;20468;-71
2023/07/12 08:50:18;;;;;;;1.50;1.23;;;27.20;99.90;;;;;;5031482;28;20460;-72
2023/07/12 08:52:46;;;;;;;3.63;1.30;;;27.50;99.90;;;;;;5031373;28;20941;-71
2023/07/12 08:55:16;;;;;;;2.70;1.50;;;27.70;99.90;;;;;;5030245;28;20942;-71
2023/07/12 08:57:43;;;;;;;2.37;1.50;;;27.50;99.90;;;;;;5031155;28;20580;-70
2023/07/12 09:00:14;;;;;;;2.80;1.27;;;27.10;99.90;;;;;;5031842;28;20453;-70
2023/07/12 09:02:40;;;;;;;5.60;1.50;;;26.50;99.90;;;;;;5031391;28;20496;-70
2023/07/12 09:05:16;;;;;;;1.90;1.40;;;26.20;99.90;;;;;;5031005;28;20489;-71
2023/07/12 09:07:51;;;;;;;2.40;1.60;;;25.90;99.90;;;;;;5031038;28;20506;-71
2023/07/12 09:10:29;;;;;;;1.60;1.50;;;25.70;99.90;;;;;;5031482;28;20859;-71
2023/07/12 09:12:58;;;;;;;4.20;1.47;;;25.60;99.90;;;;;;5031309;28;20519;-71
2023/07/12 09:15:33;;;;;;;1.87;1.23;;;25.70;99.90;;;;;;5031091;28;20480;-71
2023/07/12 09:18:01;;;;;;;2.70;1.30;;;26.10;99.90;;;;;;5030756;28;20480;-71
2023/07/12 09:20:31;;;;;;;2.60;1.30;;;26.50;99.90;;;;;;5031582;28;20938;-70
2023/07/12 09:23:00;;;;;;;1.30;1.00;;;26.90;99.90;;;;;;5031440;28;20453;-70
2023/07/12 09:25:34;;;;;;;3.03;1.40;;;27.00;99.90;;;;;;5031128;28;20560;-70
2023/07/12 09:28:00;;;;;;;1.53;1.30;;;27.20;99.90;;;;;;5030901;28;20441;-70
2023/07/12 09:30:29;;;;;;;2.17;1.60;;;26.80;99.90;;;;;;5030798;28;20466;-70
2023/07/12 09:32:58;;;;;;;2.45;1.10;;;26.70;99.90;;;;;;5022303;28;20449;-70
2023/07/12 09:35:29;;;;;;;1.70;1.57;;;26.80;99.90;;;;;;5030663;28;20233;-70
2023/07/12 09:38:03;;;;;;;2.40;1.57;;;26.90;99.90;;;;;;5029001;28;20496;-70
2023/07/12 09:40:35;;;;;;;3.40;1.60;;;26.70;99.90;;;;;;5027349;28;20532;-70
2023/07/12 09:43:05;;;;;;;2.50;1.40;;;26.90;99.90;;;;;;5027857;28;20515;-70
2023/07/12 09:45:36;;;;;;;2.10;1.33;;;27.00;99.90;;;;;;5027406;28;20478;-71
2023/07/12 09:48:10;;;;;;;1.40;1.30;;;27.30;99.90;;;;;;5027020;28;20508;-71
2023/07/12 09:50:43;;;;;;;1.60;1.37;;;27.80;99.90;;;;;;5028070;28;20448;-72
2023/07/12 09:53:23;;;;;;;2.90;1.70;;;28.10;99.90;;;;;;5027806;28;20531;-71
2023/07/12 09:55:58;;;;;;;2.80;1.33;;;28.40;99.90;;;;;;5027399;28;20546;-71
2023/07/12 09:58:33;;;;;;;3.00;1.37;;;28.60;99.90;;;;;;5027120;28;21345;-69
2023/07/12 10:01:05;;;;;;;1.50;1.40;;;29.00;99.90;;;;;;5031082;28;20486;-70
2023/07/12 10:03:35;;;;;;;3.87;1.50;;;29.30;99.90;;;;;;5030995;28;20463;-70
2023/07/12 10:06:05;;;;;;;3.37;1.40;;;29.50;99.90;;;;;;5027666;28;20519;-70
2023/07/12 10:08:45;;;;;;;4.10;1.60;;;29.00;99.90;;;;;;5029708;28;20511;-71
2023/07/12 10:11:16;;;;;;;1.90;1.60;;;29.20;99.90;;;;;;5030790;28;20537;-70
2023/07/12 10:13:46;;;;;;;3.70;1.60;;;29.40;99.90;;;;;;5030955;28;20454;-70
2023/07/12 10:16:18;;;;;;;3.10;1.90;;;29.40;99.90;;;;;;5031468;28;20448;-70
2023/07/12 10:18:48;;;;;;;3.70;1.73;;;28.80;99.90;;;;;;5030475;28;20570;-71
2023/07/12 10:21:20;;;;;;;3.13;1.50;;;28.30;99.90;;;;;;5030074;28;20970;-70
2023/07/12 10:23:55;;;;;;;1.73;1.60;;;28.50;99.90;;;;;;5031154;28;20524;-70
2023/07/12 10:26:21;;;;;;;5.63;1.53;;;28.80;99.90;;;;;;5029864;28;20487;-70
2023/07/12 10:28:56;;;;;;;2.03;1.40;;;29.30;99.90;;;;;;5030638;28;20448;-71
2023/07/12 10:31:33;;;;;;;1.77;1.33;;;29.50;99.90;;;;;;5030785;28;20790;-71
2023/07/12 10:34:15;;;;;;;2.80;1.50;;;29.50;99.90;;;;;;5030925;28;20477;-70
2023/07/12 10:36:43;;;;;;;1.70;1.60;;;29.10;99.90;;;;;;5030440;28;20453;-70
2023/07/12 10:39:12;;;;;;;2.23;1.50;;;28.80;99.90;;;;;;5030380;28;21013;-71
2023/07/12 10:41:44;;;;;;;1.93;1.67;;;28.70;99.90;;;;;;5029654;28;20503;-71
2023/07/12 10:44:18;;;;;;;1.80;1.70;;;28.80;99.90;;;;;;5030248;28;20477;-70
2023/07/12 10:46:49;;;;;;;1.97;1.60;;;29.30;99.90;;;;;;5030439;28;20849;-70
2023/07/12 10:49:19;;;;;;;2.97;1.90;;;29.50;99.90;;;;;;5030813;28;20459;-70
2023/07/12 10:52:05;;;;;;;4.80;1.80;;;29.20;99.90;;;;;;5029940;28;20449;-71
2023/07/12 10:54:51;;;;;;;3.63;1.90;;;29.30;99.90;;;;;;5030235;28;20997;-71
2023/07/12 10:57:28;;;;;;;3.10;1.87;;;29.70;99.90;;;;;;5029911;28;20461;-70
2023/07/12 11:00:05;;;;;;;1.77;1.67;;;30.20;99.90;;;;;;5030195;28;20489;-71
2023/07/12 11:02:40;;;;;;;3.30;1.77;;;30.10;99.90;;;;;;5030271;28;20873;-70
2023/07/12 11:05:37;;;;;;;3.77;1.60;;;30.20;99.90;;;;;;5030190;28;20531;-70
2023/07/12 11:08:05;;;;;;;2.40;1.77;;;30.00;99.90;;;;;;5030340;28;20442;-71
2023/07/12 11:10:36;;;;;;;7.13;2.57;;;30.40;99.90;;;;;;5029987;28;20476;-70
2023/07/12 11:13:12;;;;;;;7.23;2.10;;;30.60;99.90;;;;;;5029433;28;20460;-71
2023/07/12 11:15:59;;;;;;;1.57;1.47;;;30.30;99.90;;;;;;5029921;28;20917;-70
2023/07/12 11:18:34;;;;;;;2.80;1.80;;;29.60;99.90;;;;;;5028643;28;20534;-71
2023/07/12 11:21:02;;;;;;;7.50;1.97;;;29.50;99.90;;;;;;5029973;28;20453;-72
2023/07/12 11:23:32;;;;;;;8.70;1.80;;;29.80;99.90;;;;;;5029606;28;20449;-71
2023/07/12 11:26:05;;;;;;;3.50;1.50;;;29.70;99.90;;;;;;5029839;28;20946;-71
2023/07/12 11:28:41;;;;;;;2.77;2.57;;;30.00;99.90;;;;;;5029566;28;20485;-71
2023/07/12 11:31:18;;;;;;;2.40;1.60;;;29.90;99.90;;;;;;5029827;28;20445;-71
2023/07/12 11:33:49;;;;;;;1.80;1.67;;;29.80;99.90;;;;;;5029611;28;20449;-72
2023/07/12 11:36:21;;;;;;;3.70;1.80;;;30.20;99.90;;;;;;5029628;28;20438;-71
2023/07/12 11:38:49;;;;;;;3.73;1.60;;;30.30;99.90;;;;;;5029071;28;20477;-71
2023/07/12 11:41:21;;;;;;;2.47;1.60;;;30.20;99.90;;;;;;5028743;28;20892;-71
2023/07/12 11:43:58;;;;;;;3.27;1.50;;;30.10;99.90;;;;;;5029307;28;20457;-71
2023/07/12 11:46:29;;;;;;;1.87;1.73;;;29.90;99.90;;;;;;5029466;28;20975;-71
2023/07/12 11:49:02;;;;;;;3.63;1.90;;;29.70;99.90;;;;;;5029249;28;20948;-71
2023/07/12 11:51:34;;;;;;;2.17;1.60;;;29.70;99.90;;;;;;5029322;28;20473;-72
2023/07/12 11:54:01;;;;;;;1.77;1.67;;;30.20;99.90;;;;;;5029153;28;20465;-71
2023/07/12 11:56:29;;;;;;;2.23;1.70;;;30.60;99.90;;;;;;5029236;28;20820;-71
2023/07/12 11:58:56;;;;;;;5.43;2.00;;;31.10;99.90;;;;;;5028932;28;20482;-71
2023/07/12 12:01:23;;;;;;;1.60;1.50;;;31.30;99.90;;;;;;5028422;28;20488;-71
2023/07/12 12:03:51;;;;;;;5.60;1.67;;;31.30;99.90;;;;;;5029476;28;20855;-71
2023/07/12 12:06:19;;;;;;;12.50;1.67;;;31.40;99.90;;;;;;5029313;28;20462;-72
2023/07/12 12:08:51;;;;;;;2.17;1.90;;;31.20;99.90;;;;;;5028857;28;20454;-71
2023/07/12 12:11:18;;;;;;;3.20;1.40;;;31.10;99.90;;;;;;5028953;28;20441;-71
2023/07/12 12:13:51;;;;;;;1.70;1.60;;;30.60;99.90;;;;;;5028599;28;20453;-71
2023/07/12 12:16:20;;;;;;;2.63;1.67;;;30.40;99.90;;;;;;5028676;28;20515;-71
2023/07/12 12:18:55;;;;;;;2.00;1.47;;;30.40;99.90;;;;;;5028657;28;20485;-71
2023/07/12 12:21:24;;;;;;;1.87;1.70;;;30.40;99.90;;;;;;5028533;28;20455;-71
2023/07/12 12:23:54;;;;;;;2.23;1.60;;;30.50;99.90;;;;;;5028767;28;20519;-72
2023/07/12 12:26:24;;;;;;;1.63;1.53;;;30.80;99.90;;;;;;5028672;28;20817;-71
2023/07/12 12:28:56;;;;;;;3.70;1.63;;;30.50;99.90;;;;;;5028210;28;20453;-70
2023/07/12 12:31:24;;;;;;;2.03;1.63;;;29.90;99.90;;;;;;5027258;28;20507;-71
2023/07/12 12:33:58;;;;;;;1.77;1.67;;;29.70;99.90;;;;;;5028327;28;20505;-71
2023/07/12 12:36:28;;;;;;;3.87;1.47;;;29.60;99.90;;;;;;5028177;28;20454;-70
2023/07/12 12:39:00;;;;;;;3.50;1.67;;;29.90;99.90;;;;;;5028455;28;20543;-71
2023/07/12 12:41:34;;;;;;;5.60;2.03;;;29.50;99.90;;;;;;5028340;28;20874;-70
2023/07/12 12:44:10;;;;;;;1.80;1.60;;;29.60;99.90;;;;;;5027869;28;20472;-71
2023/07/12 12:46:36;;;;;;;1.77;1.63;;;29.60;99.90;;;;;;5028201;28;20544;-70
2023/07/12 12:49:04;;;;;;;2.80;1.63;;;29.80;99.90;;;;;;5030598;28;20454;-71
2023/07/12 12:51:31;;;;;;;3.13;1.63;;;29.90;99.90;;;;;;5031328;28;20461;-70